Time;durP1;ratioP1;P1;durP2;ratioP2;P2;SDS_P1;SDS_P2;PMS_P1;PMS_P2;Temp;Humidity;BMP_temperature;BMP_pressure;BME280_temperature;BME280_humidity;BME280_pressure;Samples;Min_cycle;Max_cycle;Signal;HPM_P1;HPM_P2
2021/07/12 00:00:32;;;;;;;;;6.00;6.00;;;;;22.30;53.53;100798.78;5043711;28;45353;-86
2021/07/12 00:02:59;;;;;;;;;3.75;3.50;;;;;22.27;53.64;100791.75;5041424;28;45388;-87
2021/07/12 00:05:28;;;;;;;;;6.00;6.00;;;;;22.29;53.67;100789.13;5040843;28;45463;-86
2021/07/12 00:07:54;;;;;;;;;6.75;6.00;;;;;22.27;53.78;100782.97;5039081;28;45479;-89
2021/07/12 00:10:22;;;;;;;;;5.50;5.50;;;;;22.20;54.11;100774.19;5038983;28;45408;-85
2021/07/12 00:12:49;;;;;;;;;6.00;5.50;;;;;22.16;54.09;100761.03;5038363;28;45408;-84
2021/07/12 00:15:16;;;;;;;;;6.00;6.00;;;;;22.17;54.31;100762.78;5039052;28;45391;-85
2021/07/12 00:17:43;;;;;;;;;5.00;5.00;;;;;22.16;54.10;100750.47;5037248;28;47015;-85
2021/07/12 00:20:11;;;;;;;;;4.75;4.75;;;;;22.09;54.56;100745.25;5038986;28;45468;-87
2021/07/12 00:22:37;;;;;;;;;7.75;6.00;;;;;22.09;54.25;100732.06;5021023;28;46027;-84
2021/07/12 00:25:04;;;;;;;;;8.50;7.00;;;;;22.12;54.08;100739.06;5039203;28;45493;-85
2021/07/12 00:27:30;;;;;;;;;7.50;5.00;;;;;22.08;54.37;100732.94;5043130;28;46335;-86
2021/07/12 00:29:57;;;;;;;;;6.00;5.00;;;;;22.07;54.98;100747.00;5045330;28;45300;-86
2021/07/12 00:32:23;;;;;;;;;7.00;7.00;;;;;22.06;54.69;100749.66;5045218;28;45297;-85
2021/07/12 00:34:49;;;;;;;;;8.00;6.25;;;;;22.04;54.72;100752.28;5041506;28;45257;-84
2021/07/12 00:37:15;;;;;;;;;7.00;7.00;;;;;22.02;54.61;100751.44;5021628;28;46713;-85
2021/07/12 00:39:40;;;;;;;;;4.75;4.75;;;;;22.01;54.53;100760.22;5038349;28;45357;-85
2021/07/12 00:42:06;;;;;;;;;8.00;7.00;;;;;21.98;54.50;100765.50;5037828;28;45546;-86
2021/07/12 00:44:32;;;;;;;;;6.75;5.75;;;;;21.98;54.58;100764.59;5038156;28;45539;-88
2021/07/12 00:46:58;;;;;;;;;6.75;5.75;;;;;21.95;54.61;100766.38;5038037;28;45451;-86
2021/07/12 00:49:23;;;;;;;;;6.00;6.00;;;;;21.95;54.76;100782.22;5038004;28;45415;-87
2021/07/12 00:51:49;;;;;;;;;7.00;5.25;;;;;21.91;55.11;100788.34;5038372;28;45476;-89
2021/07/12 00:54:16;;;;;;;;;5.25;5.00;;;;;21.92;54.62;100798.03;5038943;28;45517;-88
2021/07/12 00:56:41;;;;;;;;;7.25;6.00;;;;;21.90;54.93;100794.50;5039601;28;45722;-88
2021/07/12 00:59:07;;;;;;;;;5.25;5.25;;;;;21.90;54.92;100788.38;5021357;28;45284;-88
2021/07/12 01:01:33;;;;;;;;;6.50;6.50;;;;;21.90;55.17;100776.06;5039779;28;45247;-87
2021/07/12 01:03:59;;;;;;;;;7.25;6.00;;;;;21.92;55.29;100771.66;5040266;28;45307;-87
2021/07/12 01:06:25;;;;;;;;;4.75;4.75;;;;;21.91;54.95;100767.28;5039976;28;46094;-87
2021/07/12 01:08:51;;;;;;;;;5.75;5.50;;;;;21.90;55.38;100754.09;5044105;28;45356;-89
2021/07/12 01:11:48;;;;;;;;;5.50;5.50;;;;;21.93;55.02;100759.34;5046774;28;45249;-86
2021/07/12 01:14:46;;;;;;;;;7.00;6.25;;;;;21.90;55.28;100751.47;5046863;28;45348;-90
2021/07/12 01:17:48;;;;;;;;;5.75;5.75;;;;;21.91;55.36;100751.44;5041642;28;45638;-86
2021/07/12 01:20:42;;;;;;;;;6.00;6.00;;;;;21.89;55.13;100741.81;5020311;28;45865;-86
2021/07/12 01:23:23;;;;;;;;;7.00;5.25;;;;;21.85;55.02;100725.13;5042196;28;45388;-87
2021/07/12 01:25:57;;;;;;;;;5.00;5.00;;;;;21.86;55.77;100726.00;5047515;28;45210;-85
2021/07/12 01:28:26;;;;;;;;;5.75;5.75;;;;;21.86;55.49;100707.53;5045254;28;45554;-85
2021/07/12 01:31:17;;;;;;;;;6.50;5.00;;;;;21.86;55.61;100703.16;5041789;28;45411;-86
2021/07/12 01:34:08;;;;;;;;;8.00;7.00;;;;;21.80;55.64;100697.91;5045073;28;45539;-85
2021/07/12 01:36:39;;;;;;;;;5.75;5.75;;;;;21.85;55.45;100690.88;5035404;28;45368;-86
2021/07/12 01:39:09;;;;;;;;;6.50;6.00;;;;;21.84;55.61;100685.59;5045807;28;45494;-86
2021/07/12 01:41:55;;;;;;;;;6.50;5.50;;;;;21.86;55.63;100682.06;5044365;28;45405;-85
2021/07/12 01:44:50;;;;;;;;;8.25;8.25;;;;;21.88;54.75;100674.16;5042663;28;45214;-85
2021/07/12 01:47:23;;;;;;;;;8.00;6.50;;;;;21.85;55.21;100674.16;5040903;28;45295;-86
2021/07/12 01:49:58;;;;;;;;;7.75;7.25;;;;;21.84;55.60;100668.03;5043642;28;46179;-87
2021/07/12 01:52:54;;;;;;;;;5.50;5.50;;;;;21.79;55.42;100668.03;5045704;28;45693;-86
2021/07/12 01:55:33;;;;;;;;;7.50;6.25;;;;;21.82;55.51;100672.41;5042779;28;45395;-87
2021/07/12 01:58:12;;;;;;;;;4.50;4.50;;;;;21.77;55.42;100676.81;5036626;28;45447;-85
2021/07/12 02:00:43;;;;;;;;;4.75;4.75;;;;;21.80;55.54;100685.63;5037445;28;46222;-88
2021/07/12 02:03:11;;;;;;;;;6.25;4.75;;;;;21.79;55.60;100691.78;5021676;28;45481;-87
2021/07/12 02:05:41;;;;;;;;;6.25;5.00;;;;;21.83;55.36;100702.28;5037591;28;45853;-83
2021/07/12 02:08:12;;;;;;;;;6.25;4.25;;;;;21.80;55.70;100701.44;5020342;28;45253;-85
2021/07/12 02:10:39;;;;;;;;;4.25;4.25;;;;;21.72;55.46;100689.16;5036995;28;46272;-86
2021/07/12 02:13:06;;;;;;;;;4.25;4.25;;;;;21.82;55.34;100705.78;5037003;28;45881;-84
2021/07/12 02:15:38;;;;;;;;;5.00;4.50;;;;;21.63;55.44;100676.88;5019074;28;45343;-85
2021/07/12 02:18:06;;;;;;;;;5.50;4.50;;;;;21.61;55.48;100668.97;5038397;28;45446;-84
2021/07/12 02:20:33;;;;;;;;;5.25;5.00;;;;;21.56;55.64;100670.72;5036649;28;46960;-85
2021/07/12 02:23:01;;;;;;;;;5.50;5.00;;;;;21.74;55.13;100704.06;5055009;28;45641;-85
2021/07/12 02:25:33;;;;;;;;;4.75;4.75;;;;;21.65;55.45;100699.69;5038541;28;45478;-85
2021/07/12 02:31:29;;;;;;;;;5.00;4.00;;;;;21.56;55.97;100696.19;5039533;28;45775;-84
2021/07/12 02:33:56;;;;;;;;;5.25;5.00;;;;;21.53;55.96;100697.09;5045889;28;45854;-84
2021/07/12 02:36:25;;;;;;;;;4.00;4.00;;;;;21.62;55.70;100699.72;5045284;28;45281;-87
2021/07/12 02:38:55;;;;;;;;;7.00;5.00;;;;;21.55;55.87;100682.13;5039843;28;46088;-84
2021/07/12 02:41:24;;;;;;;;;6.25;6.25;;;;;21.62;56.03;100690.94;5042516;28;45485;-85
2021/07/12 02:43:57;;;;;;;;;6.00;6.00;;;;;21.42;56.43;100646.19;5041680;28;45278;-84
2021/07/12 02:46:25;;;;;;;;;3.25;3.25;;;;;21.55;56.06;100666.31;5038567;28;45468;-85
2021/07/12 02:48:55;;;;;;;;;5.00;5.00;;;;;21.56;56.74;100654.03;5039554;28;45316;-84
2021/07/12 02:51:28;;;;;;;;;7.25;5.00;;;;;21.57;56.46;100648.75;5054686;28;46998;-86
2021/07/12 02:53:59;;;;;;;;;6.25;5.25;;;;;21.67;57.05;100640.84;5021889;28;45432;-85
2021/07/12 02:56:32;;;;;;;;;5.50;4.25;;;;;21.67;57.14;100612.75;5039764;28;45346;-86
2021/07/12 02:59:00;;;;;;;;;5.00;5.00;;;;;21.48;57.36;100561.88;5022990;28;45391;-85
2021/07/12 03:01:26;;;;;;;;;5.00;5.00;;;;;21.61;57.53;100583.78;5040916;28;47004;-84
2021/07/12 03:03:55;;;;;;;;;4.00;4.00;;;;;21.55;57.72;100581.16;5040711;28;45422;-87
2021/07/12 03:06:28;;;;;;;;;5.25;4.50;;;;;21.57;57.51;100590.78;5047962;28;45469;-87
2021/07/12 03:08:59;;;;;;;;;6.50;5.50;;;;;21.65;57.59;100604.84;5006251;28;45473;-85
2021/07/12 03:11:33;;;;;;;;;5.50;4.25;;;;;21.64;58.01;100618.03;5030128;28;46075;-83
2021/07/12 03:14:14;;;;;;;;;8.00;6.50;;;;;21.63;57.64;100626.81;5035077;28;45673;-83
2021/07/12 03:16:43;;;;;;;;;6.25;5.25;;;;;21.62;58.27;100617.16;5032318;28;45239;-86
2021/07/12 03:19:15;;;;;;;;;4.25;4.25;;;;;21.57;58.22;100608.38;5024656;28;45480;-85
2021/07/12 03:21:45;;;;;;;;;4.75;4.75;;;;;21.58;58.58;100618.91;5024374;28;46352;-85
2021/07/12 03:24:11;;;;;;;;;4.00;4.00;;;;;21.60;58.12;100604.00;5024946;28;45456;-88
2021/07/12 03:26:42;;;;;;;;;5.75;5.25;;;;;21.62;58.58;100603.97;5023000;28;45788;-88
2021/07/12 03:29:11;;;;;;;;;3.25;3.25;;;;;21.59;59.04;100596.97;5021448;28;45310;-87
2021/07/12 03:31:40;;;;;;;;;4.50;4.50;;;;;21.60;58.78;100596.09;5021213;28;46253;-87
2021/07/12 03:34:08;;;;;;;;;6.75;4.75;;;;;21.58;59.02;100581.16;5030435;28;45395;-86
2021/07/12 03:36:35;;;;;;;;;5.00;5.00;;;;;21.58;58.42;100562.72;5038823;28;45278;-87
2021/07/12 03:39:03;;;;;;;;;6.00;6.00;;;;;21.58;58.93;100560.94;5044296;28;45364;-87
2021/07/12 03:41:30;;;;;;;;;5.50;5.25;;;;;21.62;58.64;100567.09;5040353;28;45419;-86
2021/07/12 03:43:55;;;;;;;;;7.75;5.00;;;;;21.64;58.44;100589.94;5039449;28;45486;-87
2021/07/12 03:46:21;;;;;;;;;5.25;4.00;;;;;21.65;58.65;100599.56;5043619;28;45438;-86
2021/07/12 03:48:47;;;;;;;;;5.25;5.25;;;;;21.64;58.58;100618.03;5052754;28;45252;-85
2021/07/12 03:51:24;;;;;;;;;8.25;3.75;;;;;21.64;58.85;100632.09;5038350;28;47660;-86
2021/07/12 03:53:50;;;;;;;;;5.00;5.00;;;;;21.57;58.54;100629.44;5050329;28;45219;-87
2021/07/12 03:56:16;;;;;;;;;6.75;5.75;;;;;21.58;58.26;100631.22;5047338;28;45309;-88
2021/07/12 03:58:42;;;;;;;;;5.00;3.50;;;;;21.56;58.10;100628.56;5043231;28;45530;-90
2021/07/12 04:01:08;;;;;;;;;5.75;4.75;;;;;21.56;58.37;100617.16;5041019;28;45435;-88
2021/07/12 04:03:33;;;;;;;;;5.75;5.75;;;;;21.55;58.41;100610.13;5040206;28;45400;-87
2021/07/12 04:05:59;;;;;;;;;4.75;4.75;;;;;21.54;58.67;100611.91;5040910;28;45243;-87
2021/07/12 04:08:25;;;;;;;;;5.25;5.25;;;;;21.58;58.75;100608.34;5041076;28;45328;-91
2021/07/12 04:10:51;;;;;;;;;5.50;5.50;;;;;21.56;58.81;100607.47;5039770;28;46162;-88
2021/07/12 04:13:16;;;;;;;;;4.25;4.25;;;;;21.52;59.14;100610.13;5041196;28;45260;-89
2021/07/12 04:15:43;;;;;;;;;6.00;6.00;;;;;21.47;58.53;100613.69;5026954;28;45302;-91
2021/07/12 04:18:09;;;;;;;;;4.00;4.00;;;;;21.39;59.07;100606.69;5024092;28;45559;-89
2021/07/12 04:20:36;;;;;;;;;6.00;4.50;;;;;21.36;59.13;100604.03;5045852;28;45343;-91
2021/07/12 04:23:03;;;;;;;;;6.50;5.25;;;;;21.32;59.53;100611.97;5052724;28;45406;-90
2021/07/12 04:25:28;;;;;;;;;5.75;4.50;;;;;21.34;59.13;100614.59;5045702;28;45468;-89
2021/07/12 04:27:56;;;;;;;;;7.50;6.25;;;;;21.37;59.41;100624.22;5041871;28;45296;-88
2021/07/12 04:30:24;;;;;;;;;5.75;5.75;;;;;21.28;59.63;100615.50;5021514;28;45448;-89
2021/07/12 04:32:51;;;;;;;;;4.50;4.00;;;;;21.33;59.54;100620.75;5042882;28;45704;-86
2021/07/12 04:35:16;;;;;;;;;4.50;4.50;;;;;21.34;59.37;100609.34;5047190;28;45838;-90
2021/07/12 04:37:42;;;;;;;;;7.00;5.50;;;;;21.32;59.17;100608.44;5045803;28;45511;-91
2021/07/12 04:40:12;;;;;;;;;5.00;5.00;;;;;21.31;58.93;100614.59;5039111;28;45521;-91
2021/07/12 04:42:38;;;;;;;;;6.00;6.00;;;;;21.31;59.65;100611.97;5040836;28;45576;-86
2021/07/12 04:45:05;;;;;;;;;5.50;5.50;;;;;21.31;59.64;100604.06;5042203;28;45403;-90
2021/07/12 04:47:30;;;;;;;;;6.00;5.50;;;;;21.29;59.96;100597.91;5038721;28;45615;-89
2021/07/12 04:49:56;;;;;;;;;8.50;7.25;;;;;21.31;59.53;100604.06;5038453;28;45532;-87
2021/07/12 04:52:27;;;;;;;;;7.00;6.25;;;;;21.30;60.00;100591.78;5022591;28;45622;-85
2021/07/12 04:54:53;;;;;;;;;5.00;5.00;;;;;21.29;60.02;100576.84;5037258;28;45312;-86
2021/07/12 04:57:19;;;;;;;;;6.25;5.75;;;;;21.35;59.64;100576.84;5038881;28;45555;-91
2021/07/12 04:59:44;;;;;;;;;6.00;4.75;;;;;21.35;59.39;100576.84;5038708;28;45570;-89
2021/07/12 05:02:13;;;;;;;;;8.25;6.75;;;;;21.36;59.72;100586.50;5038296;28;45323;-88
2021/07/12 05:04:38;;;;;;;;;4.75;4.75;;;;;21.37;59.30;100580.34;5041490;28;45375;-86
2021/07/12 05:07:06;;;;;;;;;5.75;5.00;;;;;21.45;59.52;100588.22;5026649;28;45609;-86
2021/07/12 05:09:32;;;;;;;;;6.00;6.00;;;;;21.44;59.29;100583.81;5045737;28;47403;-88
2021/07/12 05:11:58;;;;;;;;;6.00;5.50;;;;;21.48;59.37;100590.84;5044379;28;45262;-89
2021/07/12 05:14:26;;;;;;;;;5.00;5.00;;;;;21.46;59.10;100572.41;5045319;28;45272;-85
2021/07/12 05:16:53;;;;;;;;;5.25;4.00;;;;;21.46;59.82;100563.63;5027792;28;45384;-89
2021/07/12 05:19:19;;;;;;;;;9.75;7.75;;;;;21.44;59.65;100553.09;5041976;28;45654;-87
2021/07/12 05:21:45;;;;;;;;;6.00;5.50;;;;;21.48;59.52;100554.84;5033401;28;45533;-91
2021/07/12 05:24:11;;;;;;;;;4.50;4.00;;;;;21.52;59.26;100560.97;5036871;28;45463;-88
2021/07/12 05:26:37;;;;;;;;;6.00;5.25;;;;;21.52;58.99;100560.09;5038051;28;45639;-86
2021/07/12 05:29:03;;;;;;;;;7.50;5.00;;;;;21.50;59.22;100558.34;5038047;28;46160;-85
2021/07/12 05:31:28;;;;;;;;;5.00;4.25;;;;;21.57;59.01;100563.59;5043347;28;45498;-88
2021/07/12 05:33:57;;;;;;;;;5.00;4.75;;;;;21.58;59.22;100557.44;5041986;28;45480;-85
2021/07/12 05:36:22;;;;;;;;;4.00;4.00;;;;;21.60;58.49;100559.22;5036861;28;45366;-89
2021/07/12 05:38:48;;;;;;;;;9.75;7.00;;;;;21.59;58.63;100554.81;5042675;28;45513;-88
2021/07/12 05:41:13;;;;;;;;;6.00;6.00;;;;;21.62;58.85;100552.19;5042977;28;45318;-87
2021/07/12 05:43:39;;;;;;;;;5.00;5.00;;;;;21.64;59.15;100560.06;5041145;28;45320;-84
2021/07/12 05:46:05;;;;;;;;;7.00;5.50;;;;;21.63;58.93;100564.47;5041709;28;44888;-86
2021/07/12 05:48:32;;;;;;;;;8.00;7.00;;;;;21.68;58.95;100566.19;5037650;28;45442;-95
2021/07/12 05:50:57;;;;;;;;;5.00;4.75;;;;;21.66;58.58;100566.22;5042110;28;45305;-86
2021/07/12 05:53:23;;;;;;;;;6.00;5.25;;;;;21.65;58.96;100565.31;5039242;28;45186;-85
2021/07/12 05:55:48;;;;;;;;;9.25;7.00;;;;;21.67;59.24;100560.06;5043648;28;45642;-83
2021/07/12 05:58:17;;;;;;;;;6.00;6.00;;;;;21.67;58.94;100552.16;5042624;28;45381;-86
2021/07/12 06:00:43;;;;;;;;;5.00;5.00;;;;;21.69;58.81;100542.50;5020242;28;45845;-84
2021/07/12 06:03:09;;;;;;;;;7.75;6.00;;;;;21.71;58.61;100550.38;5036345;28;45481;-83
2021/07/12 06:05:34;;;;;;;;;6.00;4.00;;;;;21.66;58.43;100542.50;5038471;28;45409;-88
2021/07/12 06:08:00;;;;;;;;;5.50;5.50;;;;;21.67;58.13;100546.88;5039823;28;46035;-84
2021/07/12 06:10:26;;;;;;;;;5.75;5.75;;;;;21.67;58.73;100544.25;5040201;28;45438;-85
2021/07/12 06:12:52;;;;;;;;;6.00;5.00;;;;;21.64;58.34;100546.91;5039157;28;45365;-91
2021/07/12 06:15:18;;;;;;;;;5.50;4.75;;;;;21.64;58.44;100542.50;5044138;28;45611;-84
2021/07/12 06:17:45;;;;;;;;;5.50;5.25;;;;;21.59;58.63;100535.53;5038336;28;46328;-84
2021/07/12 06:20:15;;;;;;;;;3.75;3.75;;;;;21.50;58.82;100539.03;5041509;28;45419;-87
2021/07/12 06:22:42;;;;;;;;;8.50;5.75;;;;;21.46;58.76;100546.09;5039465;28;45411;-86
2021/07/12 06:25:12;;;;;;;;;5.75;5.75;;;;;21.36;59.15;100539.09;5043690;28;45449;-92
2021/07/12 06:27:38;;;;;;;;;6.50;5.50;;;;;21.31;59.30;100533.84;5048386;28;45408;-86
2021/07/12 06:30:06;;;;;;;;;5.00;5.00;;;;;21.27;59.62;100533.88;5045852;28;45430;-85
2021/07/12 06:32:32;;;;;;;;;8.50;8.00;;;;;21.21;59.44;100528.63;5037852;28;45264;-85
2021/07/12 06:34:58;;;;;;;;;4.00;4.00;;;;;21.12;59.35;100526.88;5028242;28;45592;-87
2021/07/12 06:37:23;;;;;;;;;6.50;4.00;;;;;;;;5046138;28;46468;-85
2021/07/12 06:39:49;;;;;;;;;6.00;5.75;;;;;21.01;59.85;100527.78;5043653;28;45472;-83
2021/07/12 06:42:15;;;;;;;;;3.75;3.75;;;;;20.97;60.52;100523.44;5046761;28;45389;-86
2021/07/12 06:44:40;;;;;;;;;5.75;4.25;;;;;20.93;60.72;100508.53;5048989;28;44917;-87
2021/07/12 06:47:06;;;;;;;;;4.00;4.00;;;;;20.98;60.95;100501.50;5026611;28;47813;-84
2021/07/12 06:49:32;;;;;;;;;6.00;5.00;;;;;21.05;60.45;100491.84;5038973;28;45518;-83
2021/07/12 06:51:58;;;;;;;;;4.50;4.25;;;;;21.10;60.64;100489.19;5037721;28;45477;-85
2021/07/12 06:54:24;;;;;;;;;6.50;5.00;;;;;21.12;60.88;100496.19;5036534;28;45344;-82
2021/07/12 06:56:49;;;;;;;;;6.00;5.50;;;;;21.14;60.56;100507.59;5034972;28;46264;-83
2021/07/12 06:59:15;;;;;;;;;5.00;5.00;;;;;21.18;60.11;100517.22;5035057;28;45428;-83
2021/07/12 07:01:41;;;;;;;;;4.75;4.75;;;;;21.18;61.10;100524.25;5035359;28;45460;-82
2021/07/12 07:04:06;;;;;;;;;6.75;6.00;;;;;21.20;60.85;100519.84;5035716;28;45305;-83
2021/07/12 07:06:32;;;;;;;;;6.25;5.50;;;;;21.18;60.84;100518.97;5017201;28;46589;-83
2021/07/12 07:08:57;;;;;;;;;4.75;4.75;;;;;21.14;60.88;100514.59;5035100;28;45404;-82
2021/07/12 07:11:23;;;;;;;;;5.00;4.75;;;;;21.08;60.90;100526.03;5035893;28;45320;-82
2021/07/12 07:13:49;;;;;;;;;7.00;5.75;;;;;21.03;61.05;100526.03;5019116;28;45553;-81
2021/07/12 07:16:15;;;;;;;;;6.50;4.50;;;;;21.01;61.38;100524.31;5037295;28;45912;-81
2021/07/12 07:18:40;;;;;;;;;6.00;5.00;;;;;20.93;61.90;100524.31;5040365;28;45360;-83
2021/07/12 07:21:06;;;;;;;;;9.00;7.25;;;;;20.94;62.42;100543.63;5034657;28;45388;-82
2021/07/12 07:23:31;;;;;;;;;7.00;5.75;;;;;20.94;62.05;100522.56;5036645;28;45608;-83
2021/07/12 07:25:57;;;;;;;;;4.50;4.50;;;;;20.96;62.14;100516.41;5033425;28;45939;-84
2021/07/12 07:28:23;;;;;;;;;3.50;3.50;;;;;21.00;62.28;100533.94;5035263;28;45430;-85
2021/07/12 07:30:50;;;;;;;;;5.75;5.75;;;;;21.01;61.59;100535.69;5016838;28;45388;-82
2021/07/12 07:33:15;;;;;;;;;5.00;3.75;;;;;21.02;62.31;100542.72;5035458;28;45459;-86
2021/07/12 07:35:41;;;;;;;;;7.00;7.00;;;;;21.05;62.26;100535.69;5016916;28;45599;-82
2021/07/12 07:38:07;;;;;;;;;5.25;5.25;;;;;21.11;62.45;100530.44;5034952;28;45195;-83
2021/07/12 07:40:32;;;;;;;;;5.33;4.33;;;;;21.19;61.66;100528.63;5034843;28;45410;-84
2021/07/12 07:42:58;;;;;;;;;5.00;5.00;;;;;21.17;61.38;100536.50;5034889;28;45237;-83
2021/07/12 07:45:24;;;;;;;;;4.75;3.75;;;;;21.22;62.00;100538.28;5034794;28;45498;-83
2021/07/12 07:47:49;;;;;;;;;6.00;6.00;;;;;21.25;61.71;100538.25;5035122;28;45245;-84
2021/07/12 07:50:16;;;;;;;;;4.75;4.75;;;;;21.30;61.70;100545.28;5017716;28;45359;-82
2021/07/12 07:52:41;;;;;;;;;5.50;5.50;;;;;21.31;61.56;100533.84;5037974;28;45443;-82
2021/07/12 07:55:09;;;;;;;;;7.00;6.25;;;;;21.37;61.29;100535.59;5045567;28;45416;-83
2021/07/12 07:57:36;;;;;;;;;6.00;4.50;;;;;21.40;61.27;100532.91;5043202;28;45740;-84
2021/07/12 08:00:04;;;;;;;;;4.00;4.00;;;;;21.42;61.21;100533.78;5043497;28;45337;-82
2021/07/12 08:02:30;;;;;;;;;5.75;5.00;;;;;21.40;61.56;100527.66;5040347;28;45325;-84
2021/07/12 08:04:55;;;;;;;;;5.25;5.25;;;;;21.36;61.27;100518.03;5039310;28;46153;-82
2021/07/12 08:07:21;;;;;;;;;4.50;4.00;;;;;21.34;61.20;100514.53;5040695;28;45911;-81
2021/07/12 08:09:47;;;;;;;;;6.25;4.00;;;;;21.44;61.50;100515.34;5040155;28;45344;-81
2021/07/12 08:12:12;;;;;;;;;6.25;5.00;;;;;21.44;61.09;100517.97;5038901;28;45353;-83
2021/07/12 08:14:38;;;;;;;;;5.25;4.25;;;;;21.44;61.23;100525.88;5038497;28;46229;-81
2021/07/12 08:17:04;;;;;;;;;7.50;5.50;;;;;21.36;61.13;100527.69;5037597;28;45458;-83
2021/07/12 08:19:29;;;;;;;;;6.00;5.00;;;;;21.32;61.44;100518.91;5020293;28;45458;-83
2021/07/12 08:21:55;;;;;;;;;4.00;4.00;;;;;21.32;60.99;100518.91;5037407;28;45599;-83
2021/07/12 08:24:20;;;;;;;;;4.25;4.00;;;;;21.35;61.34;100539.97;5037548;28;45821;-81
2021/07/12 08:26:46;;;;;;;;;4.50;4.50;;;;;21.34;61.09;100540.84;5038441;28;45443;-83
2021/07/12 08:29:12;;;;;;;;;6.25;5.00;;;;;21.32;61.49;100539.97;5039036;28;45352;-85
2021/07/12 08:31:37;;;;;;;;;4.50;4.00;;;;;21.31;60.97;100560.19;5039035;28;45450;-84
2021/07/12 08:34:03;;;;;;;;;4.75;3.75;;;;;21.26;61.13;100561.94;5039728;28;46261;-83
2021/07/12 08:36:29;;;;;;;;;5.50;5.50;;;;;21.27;61.35;100562.84;5027709;28;45289;-83
2021/07/12 08:38:54;;;;;;;;;6.25;4.25;;;;;21.28;61.34;100581.25;5042265;28;45284;-84
2021/07/12 08:41:21;;;;;;;;;5.00;4.75;;;;;21.28;61.67;100573.34;5042012;28;45229;-85
2021/07/12 08:43:47;;;;;;;;;3.25;3.25;;;;;21.27;61.28;100574.25;5037622;28;45452;-85
2021/07/12 08:46:13;;;;;;;;;4.75;4.00;;;;;21.25;61.52;100583.88;5037249;28;45491;-83
2021/07/12 08:48:38;;;;;;;;;7.25;5.25;;;;;21.24;61.66;100576.88;5038162;28;45480;-82
2021/07/12 08:51:04;;;;;;;;;5.00;5.00;;;;;21.27;61.26;100576.88;5019145;28;45601;-83
2021/07/12 08:53:30;;;;;;;;;3.75;3.75;;;;;21.30;61.36;100584.78;5037373;28;46498;-82
2021/07/12 08:55:55;;;;;;;;;4.00;3.25;;;;;21.30;61.80;100576.88;5037107;28;45437;-84
2021/07/12 08:58:23;;;;;;;;;6.00;5.00;;;;;21.37;61.67;100584.72;5019381;28;45406;-83
2021/07/12 09:01:00;;;;;;;;;5.75;5.00;;;;;21.40;61.12;100568.94;5037087;28;45462;-82
2021/07/12 09:03:32;;;;;;;;;6.50;6.25;;;;;21.49;61.45;100564.47;5036383;28;46426;-85
2021/07/12 09:05:59;;;;;;;;;3.50;3.50;;;;;21.62;61.23;100575.00;5018973;28;45833;-83
2021/07/12 09:08:38;;;;;;;;;4.75;4.75;;;;;21.69;60.78;100573.22;5019182;28;45466;-84
2021/07/12 09:11:17;;;;;;;;;6.25;5.25;;;;;21.73;61.03;100575.81;5037435;28;46119;-84
2021/07/12 09:13:57;;;;;;;;;5.00;5.00;;;;;21.71;60.62;100568.81;5035924;28;45573;-84
2021/07/12 09:16:34;;;;;;;;;5.25;4.50;;;;;21.65;60.52;100567.94;5043811;28;45325;-84
2021/07/12 09:19:06;;;;;;;;;3.50;3.50;;;;;21.63;60.55;100564.47;5042579;28;45428;-87
2021/07/12 09:21:38;;;;;;;;;5.00;4.75;;;;;21.64;60.89;100565.34;5042622;28;45384;-87
2021/07/12 09:24:19;;;;;;;;;5.50;5.50;;;;;21.61;60.70;100578.50;5037263;28;46533;-84
2021/07/12 09:26:48;;;;;;;;;9.00;5.50;;;;;21.55;61.14;100575.88;5036613;28;45835;-82
2021/07/12 09:29:23;;;;;;;;;6.75;4.75;;;;;21.43;61.91;100563.66;5053360;28;45308;-83
2021/07/12 09:31:49;;;;;;;;;5.00;5.00;;;;;21.37;62.32;100574.19;5038164;28;45421;-82
2021/07/12 09:34:16;;;;;;;;;5.25;5.25;;;;;21.41;62.22;100586.50;5037437;28;46382;-83
2021/07/12 09:36:42;;;;;;;;;7.25;7.00;;;;;21.42;62.28;100590.88;5038411;28;45797;-82
2021/07/12 09:39:39;;;;;;;;;5.75;5.25;;;;;21.43;61.97;100577.69;5022582;28;45439;-83
2021/07/12 09:42:14;;;;;;;;;7.25;6.50;;;;;21.42;61.91;100577.72;5048441;28;45399;-79
2021/07/12 09:44:43;;;;;;;;;7.00;7.00;;;;;21.45;62.33;100583.84;5040016;28;45531;-83
2021/07/12 09:47:14;;;;;;;;;8.00;7.00;;;;;21.47;62.34;100592.63;5039723;28;45343;-84
2021/07/12 09:49:40;;;;;;;;;9.00;7.00;;;;;21.49;62.46;100597.84;5038884;28;45411;-82
2021/07/12 09:52:09;;;;;;;;;5.00;4.50;;;;;21.45;62.11;100597.00;5038724;28;45313;-82
2021/07/12 09:54:37;;;;;;;;;8.75;6.00;;;;;21.40;61.19;100587.38;5041250;28;45309;-88
2021/07/12 09:57:06;;;;;;;;;5.25;4.25;;;;;21.34;61.57;100598.78;5023002;28;45434;-84
2021/07/12 09:59:33;;;;;;;;;7.25;5.00;;;;;21.37;61.48;100611.97;5044899;28;45364;-83
2021/07/12 10:01:59;;;;;;;;;7.00;4.25;;;;;21.34;62.32;100598.78;5045137;28;45221;-87
2021/07/12 10:04:25;;;;;;;;;6.50;6.50;;;;;21.40;62.72;100604.03;5043774;28;45424;-86
2021/07/12 10:06:54;;;;;;;;;6.50;6.50;;;;;21.45;62.70;100590.84;5040484;28;45186;-86
2021/07/12 10:09:23;;;;;;;;;6.00;6.00;;;;;21.49;62.95;100605.75;5042199;28;45427;-84
2021/07/12 10:11:53;;;;;;;;;7.50;5.50;;;;;21.44;62.53;100599.63;5044510;28;45400;-83
2021/07/12 10:14:20;;;;;;;;;6.00;6.00;;;;;21.36;62.42;100599.69;5039703;28;45605;-86
2021/07/12 10:16:46;;;;;;;;;5.00;5.00;;;;;21.34;62.55;100604.94;5039423;28;45531;-84
2021/07/12 10:19:12;;;;;;;;;4.75;4.75;;;;;21.37;62.54;100606.69;5040726;28;45424;-82
2021/07/12 10:21:41;;;;;;;;;6.00;5.00;;;;;21.36;62.18;100604.03;5043631;28;45226;-85
2021/07/12 10:24:07;;;;;;;;;6.75;5.25;;;;;21.42;62.02;100607.53;5039697;28;46402;-86
2021/07/12 10:26:44;;;;;;;;;5.75;5.00;;;;;21.43;61.79;100597.91;5048916;28;44974;-82
2021/07/12 10:29:34;;;;;;;;;7.00;5.00;;;;;21.51;61.87;100606.63;5046269;28;45270;-85
2021/07/12 10:32:14;;;;;;;;;4.00;3.75;;;;;21.61;61.93;100613.66;5038004;28;45304;-83
2021/07/12 10:34:41;;;;;;;;;4.00;3.75;;;;;21.64;61.55;100607.50;5037083;28;46383;-86
2021/07/12 10:37:19;;;;;;;;;5.75;5.50;;;;;21.69;61.72;100602.19;5039842;28;45717;-83
2021/07/12 10:40:07;;;;;;;;;4.00;4.00;;;;;21.75;61.14;100594.28;5044473;28;45336;-83
2021/07/12 10:42:42;;;;;;;;;5.25;5.25;;;;;21.82;61.62;100598.63;5040884;28;45320;-87
2021/07/12 10:45:15;;;;;;;;;6.25;5.00;;;;;21.94;61.60;100590.66;5038427;28;45425;-85
2021/07/12 10:47:43;;;;;;;;;6.50;6.00;;;;;22.08;60.95;100574.75;5038343;28;45416;-83
2021/07/12 10:50:33;;;;;;;;;5.75;4.50;;;;;22.19;61.02;100568.53;5040675;28;45444;-88
2021/07/12 10:52:59;;;;;;;;;5.00;5.00;;;;;22.22;60.95;100572.00;5037590;28;45679;-87
2021/07/12 10:55:30;;;;;;;;;5.00;5.00;;;;;22.26;60.95;100584.28;5037030;28;45359;-85
2021/07/12 10:58:17;;;;;;;;;6.25;4.75;;;;;22.37;60.49;100578.06;5035602;28;45845;-84
2021/07/12 11:00:44;;;;;;;;;6.00;5.25;;;;;22.57;60.07;100570.88;5036439;28;45250;-84
2021/07/12 11:03:35;;;;;;;;;5.00;5.00;;;;;22.92;59.41;100565.28;5036021;28;45587;-85
2021/07/12 11:06:27;;;;;;;;;6.00;5.25;;;;;23.09;58.31;100563.34;5035388;28;45814;-87
2021/07/12 11:08:53;;;;;;;;;7.00;7.00;;;;;23.27;58.28;100566.72;5035701;28;45321;-86
2021/07/12 11:11:19;;;;;;;;;8.25;7.00;;;;;23.39;57.15;100565.66;5037523;28;45416;-84
2021/07/12 11:13:48;;;;;;;;;10.00;10.00;;;;;23.49;57.20;100562.03;5036451;28;45537;-81
2021/07/12 11:16:16;;;;;;;;;6.25;6.25;;;;;23.65;56.96;100557.41;5035952;28;46996;-85
2021/07/12 11:18:41;;;;;;;;;9.25;7.25;;;;;23.83;56.46;100551.00;5041747;28;45233;-84
2021/07/12 11:21:09;;;;;;;;;8.75;8.50;;;;;23.97;55.75;100550.81;5043491;28;45353;-81
2021/07/12 11:23:58;;;;;;;;;10.00;6.75;;;;;24.08;55.41;100542.72;5040391;28;45399;-83
2021/07/12 11:26:24;;;;;;;;;8.50;8.50;;;;;24.19;55.44;100550.47;5022138;28;47595;-85
2021/07/12 11:28:53;;;;;;;;;7.50;7.50;;;;;24.26;55.25;100547.72;5038896;28;45324;-86
2021/07/12 11:31:45;;;;;;;;;8.25;8.25;;;;;24.30;55.14;100535.31;5039577;28;45282;-86
2021/07/12 11:34:37;;;;;;;;;7.25;7.25;;;;;24.39;55.23;100531.66;5039584;28;45263;-85
2021/07/12 11:37:09;;;;;;;;;6.50;6.50;;;;;24.39;54.47;100523.72;5039140;28;46098;-84
2021/07/12 11:39:40;;;;;;;;;9.50;8.50;;;;;24.27;55.00;100523.00;5037919;28;45331;-85